sensor_id;sensor_type;location;lat;lon;timestamp;temperature;humidity
9305;DHT22;4690;52.422;13.486;2023-12-04T00:11:48;-4.90;99.90
9305;DHT22;4690;52.422;13.486;2023-12-04T00:14:14;-4.90;99.90
9305;DHT22;4690;52.422;13.486;2023-12-04T00:16:39;-4.90;99.90
9305;DHT22;4690;52.422;13.486;2023-12-04T00:19:05;-5.00;99.90
9305;DHT22;4690;52.422;13.486;2023-12-04T00:21:32;-4.90;99.90
9305;DHT22;4690;52.422;13.486;2023-12-04T00:23:58;-5.00;99.90
9305;DHT22;4690;52.422;13.486;2023-12-04T00:26:23;-5.00;99.90
9305;DHT22;4690;52.422;13.486;2023-12-04T00:28:49;-5.00;99.90
9305;DHT22;4690;52.422;13.486;2023-12-04T00:31:15;-5.00;99.90
9305;DHT22;4690;52.422;13.486;2023-12-04T00:33:40;-5.00;99.90
9305;DHT22;4690;52.422;13.486;2023-12-04T00:36:06;-5.00;99.90
9305;DHT22;4690;52.422;13.486;2023-12-04T00:38:33;-5.00;99.90
9305;DHT22;4690;52.422;13.486;2023-12-04T00:40:58;-5.00;99.90
9305;DHT22;4690;52.422;13.486;2023-12-04T00:43:24;-5.00;99.90
9305;DHT22;4690;52.422;13.486;2023-12-04T00:45:50;-5.00;99.90
9305;DHT22;4690;52.422;13.486;2023-12-04T00:48:16;-5.00;99.90
9305;DHT22;4690;52.422;13.486;2023-12-04T00:50:41;-5.00;99.90
9305;DHT22;4690;52.422;13.486;2023-12-04T00:53:07;-5.00;99.90
9305;DHT22;4690;52.422;13.486;2023-12-04T00:55:33;-5.00;99.90
9305;DHT22;4690;52.422;13.486;2023-12-04T00:57:59;-5.10;99.90
9305;DHT22;4690;52.422;13.486;2023-12-04T01:00:24;-5.10;99.90
9305;DHT22;4690;52.422;13.486;2023-12-04T01:02:51;-5.10;99.90
9305;DHT22;4690;52.422;13.486;2023-12-04T01:05:17;-5.10;99.90
9305;DHT22;4690;52.422;13.486;2023-12-04T01:07:42;-5.10;99.90
9305;DHT22;4690;52.422;13.486;2023-12-04T01:10:09;-5.00;99.90
9305;DHT22;4690;52.422;13.486;2023-12-04T01:12:34;-5.10;99.90
9305;DHT22;4690;52.422;13.486;2023-12-04T01:15:01;-5.10;99.90
9305;DHT22;4690;52.422;13.486;2023-12-04T01:17:28;-5.20;99.90
9305;DHT22;4690;52.422;13.486;2023-12-04T01:19:54;-5.20;99.90
9305;DHT22;4690;52.422;13.486;2023-12-04T01:22:20;-5.20;99.90
9305;DHT22;4690;52.422;13.486;2023-12-04T01:24:46;-5.30;99.90
9305;DHT22;4690;52.422;13.486;2023-12-04T01:27:11;-5.30;99.90
9305;DHT22;4690;52.422;13.486;2023-12-04T01:29:38;-5.30;99.90
9305;DHT22;4690;52.422;13.486;2023-12-04T01:32:04;-5.30;99.90
9305;DHT22;4690;52.422;13.486;2023-12-04T01:34:30;-5.30;99.90
9305;DHT22;4690;52.422;13.486;2023-12-04T01:36:55;-5.30;99.90
9305;DHT22;4690;52.422;13.486;2023-12-04T01:39:21;-5.30;99.90
9305;DHT22;4690;52.422;13.486;2023-12-04T01:41:47;-5.40;99.90
9305;DHT22;4690;52.422;13.486;2023-12-04T01:44:13;-5.30;99.90
9305;DHT22;4690;52.422;13.486;2023-12-04T01:46:38;-5.40;99.90
9305;DHT22;4690;52.422;13.486;2023-12-04T01:49:04;-5.40;99.90
9305;DHT22;4690;52.422;13.486;2023-12-04T01:51:30;-5.40;99.90
9305;DHT22;4690;52.422;13.486;2023-12-04T01:53:59;-5.40;99.90
9305;DHT22;4690;52.422;13.486;2023-12-04T01:56:29;-5.40;99.90
9305;DHT22;4690;52.422;13.486;2023-12-04T01:58:55;-5.40;99.90
9305;DHT22;4690;52.422;13.486;2023-12-04T02:01:22;-5.40;99.90
9305;DHT22;4690;52.422;13.486;2023-12-04T02:03:49;-5.30;99.90
9305;DHT22;4690;52.422;13.486;2023-12-04T02:06:16;-5.30;99.90
9305;DHT22;4690;52.422;13.486;2023-12-04T02:08:42;-5.20;99.90
9305;DHT22;4690;52.422;13.486;2023-12-04T02:11:09;-5.20;99.90
9305;DHT22;4690;52.422;13.486;2023-12-04T02:13:35;-5.10;99.90
9305;DHT22;4690;52.422;13.486;2023-12-04T02:16:03;-5.10;99.90
9305;DHT22;4690;52.422;13.486;2023-12-04T02:18:34;-5.00;99.90
9305;DHT22;4690;52.422;13.486;2023-12-04T02:21:01;-5.00;99.90
9305;DHT22;4690;52.422;13.486;2023-12-04T02:23:27;-4.90;99.90
9305;DHT22;4690;52.422;13.486;2023-12-04T02:26:01;-5.00;99.90
9305;DHT22;4690;52.422;13.486;2023-12-04T02:28:33;-4.90;99.90
9305;DHT22;4690;52.422;13.486;2023-12-04T02:31:03;-4.90;99.90
9305;DHT22;4690;52.422;13.486;2023-12-04T02:33:31;-4.90;99.90
9305;DHT22;4690;52.422;13.486;2023-12-04T02:36:01;-4.90;99.90
9305;DHT22;4690;52.422;13.486;2023-12-04T02:38:29;-5.00;99.90
9305;DHT22;4690;52.422;13.486;2023-12-04T02:40:56;-5.00;99.90
9305;DHT22;4690;52.422;13.486;2023-12-04T02:43:21;-5.00;99.90
9305;DHT22;4690;52.422;13.486;2023-12-04T02:45:47;-5.00;99.90
9305;DHT22;4690;52.422;13.486;2023-12-04T02:48:13;-5.00;99.90
9305;DHT22;4690;52.422;13.486;2023-12-04T02:50:39;-5.00;99.90
9305;DHT22;4690;52.422;13.486;2023-12-04T02:53:04;-5.10;99.90
9305;DHT22;4690;52.422;13.486;2023-12-04T02:55:30;-5.10;99.90
9305;DHT22;4690;52.422;13.486;2023-12-04T02:57:56;-5.10;99.90
9305;DHT22;4690;52.422;13.486;2023-12-04T03:00:22;-5.20;99.90
9305;DHT22;4690;52.422;13.486;2023-12-04T03:02:47;-5.20;99.90
9305;DHT22;4690;52.422;13.486;2023-12-04T03:05:13;-5.20;99.90
9305;DHT22;4690;52.422;13.486;2023-12-04T03:07:39;-5.20;99.90
9305;DHT22;4690;52.422;13.486;2023-12-04T03:10:05;-5.20;99.90
9305;DHT22;4690;52.422;13.486;2023-12-04T03:12:31;-5.30;99.90
9305;DHT22;4690;52.422;13.486;2023-12-04T03:14:57;-5.30;99.90
9305;DHT22;4690;52.422;13.486;2023-12-04T03:17:22;-5.30;99.90
9305;DHT22;4690;52.422;13.486;2023-12-04T03:19:48;-5.20;99.90
9305;DHT22;4690;52.422;13.486;2023-12-04T03:22:14;-5.20;99.90
9305;DHT22;4690;52.422;13.486;2023-12-04T03:24:39;-5.20;99.90
9305;DHT22;4690;52.422;13.486;2023-12-04T03:27:05;-5.10;99.90
9305;DHT22;4690;52.422;13.486;2023-12-04T03:29:31;-5.10;99.90
9305;DHT22;4690;52.422;13.486;2023-12-04T03:31:56;-5.10;99.90
9305;DHT22;4690;52.422;13.486;2023-12-04T03:34:23;-5.10;99.90
9305;DHT22;4690;52.422;13.486;2023-12-04T03:36:48;-5.00;99.90
9305;DHT22;4690;52.422;13.486;2023-12-04T03:39:14;-5.00;99.90
9305;DHT22;4690;52.422;13.486;2023-12-04T03:41:40;-4.90;99.90
9305;DHT22;4690;52.422;13.486;2023-12-04T03:44:05;-4.80;99.90
9305;DHT22;4690;52.422;13.486;2023-12-04T03:46:31;-4.90;99.90
9305;DHT22;4690;52.422;13.486;2023-12-04T03:48:57;-4.80;99.90
9305;DHT22;4690;52.422;13.486;2023-12-04T03:51:22;-4.80;99.90
9305;DHT22;4690;52.422;13.486;2023-12-04T03:53:48;-4.70;99.90
9305;DHT22;4690;52.422;13.486;2023-12-04T03:56:14;-4.60;99.90
9305;DHT22;4690;52.422;13.486;2023-12-04T03:58:40;-4.60;99.90
9305;DHT22;4690;52.422;13.486;2023-12-04T04:01:06;-4.60;99.90
9305;DHT22;4690;52.422;13.486;2023-12-04T04:03:32;-4.50;99.90
9305;DHT22;4690;52.422;13.486;2023-12-04T04:05:57;-4.50;99.90
9305;DHT22;4690;52.422;13.486;2023-12-04T04:08:23;-4.50;99.90
9305;DHT22;4690;52.422;13.486;2023-12-04T04:10:49;-4.50;99.90
9305;DHT22;4690;52.422;13.486;2023-12-04T04:13:14;-4.50;99.90
9305;DHT22;4690;52.422;13.486;2023-12-04T04:15:41;-4.50;99.90
9305;DHT22;4690;52.422;13.486;2023-12-04T04:18:07;-4.40;99.90
9305;DHT22;4690;52.422;13.486;2023-12-04T04:20:32;-4.50;99.90
9305;DHT22;4690;52.422;13.486;2023-12-04T04:22:58;-4.50;99.90
9305;DHT22;4690;52.422;13.486;2023-12-04T04:25:24;-4.50;99.90
9305;DHT22;4690;52.422;13.486;2023-12-04T04:27:50;-4.50;99.90
9305;DHT22;4690;52.422;13.486;2023-12-04T04:30:15;-4.40;99.90
9305;DHT22;4690;52.422;13.486;2023-12-04T04:32:42;-4.40;99.90
9305;DHT22;4690;52.422;13.486;2023-12-04T04:35:08;-4.40;99.90
9305;DHT22;4690;52.422;13.486;2023-12-04T04:37:34;-4.40;99.90
9305;DHT22;4690;52.422;13.486;2023-12-04T04:40:01;-4.40;99.90
9305;DHT22;4690;52.422;13.486;2023-12-04T04:42:26;-4.40;99.90
9305;DHT22;4690;52.422;13.486;2023-12-04T04:44:52;-4.30;99.90
9305;DHT22;4690;52.422;13.486;2023-12-04T04:47:18;-4.30;99.90
9305;DHT22;4690;52.422;13.486;2023-12-04T04:49:44;-4.30;99.90
9305;DHT22;4690;52.422;13.486;2023-12-04T04:52:09;-4.30;99.90
9305;DHT22;4690;52.422;13.486;2023-12-04T04:54:35;-4.30;99.90
9305;DHT22;4690;52.422;13.486;2023-12-04T04:57:01;-4.30;99.90
9305;DHT22;4690;52.422;13.486;2023-12-04T04:59:27;-4.30;99.90
9305;DHT22;4690;52.422;13.486;2023-12-04T05:01:56;-4.30;99.90
9305;DHT22;4690;52.422;13.486;2023-12-04T05:04:22;-4.30;99.90
9305;DHT22;4690;52.422;13.486;2023-12-04T05:06:47;-4.30;99.90
9305;DHT22;4690;52.422;13.486;2023-12-04T05:09:13;-4.30;99.90
9305;DHT22;4690;52.422;13.486;2023-12-04T05:11:39;-4.20;99.90
9305;DHT22;4690;52.422;13.486;2023-12-04T05:14:05;-4.20;99.90
9305;DHT22;4690;52.422;13.486;2023-12-04T05:16:30;-4.20;99.90
9305;DHT22;4690;52.422;13.486;2023-12-04T05:18:56;-4.20;99.90
9305;DHT22;4690;52.422;13.486;2023-12-04T05:21:22;-4.20;99.90
9305;DHT22;4690;52.422;13.486;2023-12-04T05:23:47;-4.30;99.90
9305;DHT22;4690;52.422;13.486;2023-12-04T05:26:13;-4.20;99.90
9305;DHT22;4690;52.422;13.486;2023-12-04T05:28:39;-4.30;99.90
9305;DHT22;4690;52.422;13.486;2023-12-04T05:31:05;-4.20;99.90
9305;DHT22;4690;52.422;13.486;2023-12-04T05:33:31;-4.20;99.90
9305;DHT22;4690;52.422;13.486;2023-12-04T05:35:57;-4.20;99.90
9305;DHT22;4690;52.422;13.486;2023-12-04T05:38:23;-4.20;99.90
9305;DHT22;4690;52.422;13.486;2023-12-04T05:40:48;-4.20;99.90
9305;DHT22;4690;52.422;13.486;2023-12-04T05:43:14;-4.20;99.90
9305;DHT22;4690;52.422;13.486;2023-12-04T05:45:40;-4.10;99.90
9305;DHT22;4690;52.422;13.486;2023-12-04T05:48:06;-4.10;99.90
9305;DHT22;4690;52.422;13.486;2023-12-04T05:50:31;-4.10;99.90
9305;DHT22;4690;52.422;13.486;2023-12-04T05:52:57;-4.10;99.90
9305;DHT22;4690;52.422;13.486;2023-12-04T05:55:24;-4.00;99.90
9305;DHT22;4690;52.422;13.486;2023-12-04T05:57:50;-4.00;99.90
9305;DHT22;4690;52.422;13.486;2023-12-04T06:00:15;-4.00;99.90
9305;DHT22;4690;52.422;13.486;2023-12-04T06:02:42;-4.00;99.90
9305;DHT22;4690;52.422;13.486;2023-12-04T06:05:09;-3.90;99.90
9305;DHT22;4690;52.422;13.486;2023-12-04T06:07:36;-3.80;99.90
9305;DHT22;4690;52.422;13.486;2023-12-04T06:10:03;-3.80;99.90
9305;DHT22;4690;52.422;13.486;2023-12-04T06:12:32;-3.80;99.90
9305;DHT22;4690;52.422;13.486;2023-12-04T06:14:58;-3.70;99.90
9305;DHT22;4690;52.422;13.486;2023-12-04T06:17:24;-3.70;99.90
9305;DHT22;4690;52.422;13.486;2023-12-04T06:19:51;-3.70;99.90
9305;DHT22;4690;52.422;13.486;2023-12-04T06:22:17;-3.70;99.90
9305;DHT22;4690;52.422;13.486;2023-12-04T06:24:45;-3.70;99.90
9305;DHT22;4690;52.422;13.486;2023-12-04T06:27:19;-3.70;99.90
9305;DHT22;4690;52.422;13.486;2023-12-04T06:29:46;-3.70;99.90
9305;DHT22;4690;52.422;13.486;2023-12-04T06:32:13;-3.70;99.90
9305;DHT22;4690;52.422;13.486;2023-12-04T06:34:39;-3.70;99.90
9305;DHT22;4690;52.422;13.486;2023-12-04T06:37:12;-3.70;99.90
9305;DHT22;4690;52.422;13.486;2023-12-04T06:39:39;-3.70;99.90
9305;DHT22;4690;52.422;13.486;2023-12-04T06:42:09;-3.70;99.90
9305;DHT22;4690;52.422;13.486;2023-12-04T06:44:36;-3.70;99.90
9305;DHT22;4690;52.422;13.486;2023-12-04T06:47:03;-3.70;99.90
9305;DHT22;4690;52.422;13.486;2023-12-04T06:49:31;-3.70;99.90
9305;DHT22;4690;52.422;13.486;2023-12-04T06:51:59;-3.70;99.90
9305;DHT22;4690;52.422;13.486;2023-12-04T06:54:26;-3.60;99.90
9305;DHT22;4690;52.422;13.486;2023-12-04T06:56:52;-3.60;99.90
9305;DHT22;4690;52.422;13.486;2023-12-04T06:59:18;-3.60;99.90
9305;DHT22;4690;52.422;13.486;2023-12-04T07:01:44;-3.70;99.90
9305;DHT22;4690;52.422;13.486;2023-12-04T07:04:10;-3.60;99.90
9305;DHT22;4690;52.422;13.486;2023-12-04T07:06:37;-3.60;99.90
9305;DHT22;4690;52.422;13.486;2023-12-04T07:09:03;-3.60;99.90
9305;DHT22;4690;52.422;13.486;2023-12-04T07:11:29;-3.60;99.90
9305;DHT22;4690;52.422;13.486;2023-12-04T07:13:55;-3.60;99.90
9305;DHT22;4690;52.422;13.486;2023-12-04T07:16:21;-3.50;99.90
9305;DHT22;4690;52.422;13.486;2023-12-04T07:18:47;-3.50;99.90
9305;DHT22;4690;52.422;13.486;2023-12-04T07:21:12;-3.50;99.90
9305;DHT22;4690;52.422;13.486;2023-12-04T07:23:38;-3.40;99.90
9305;DHT22;4690;52.422;13.486;2023-12-04T07:26:04;-3.40;99.90
9305;DHT22;4690;52.422;13.486;2023-12-04T07:28:32;-3.40;99.90
9305;DHT22;4690;52.422;13.486;2023-12-04T07:30:58;-3.30;99.90
9305;DHT22;4690;52.422;13.486;2023-12-04T07:33:24;-3.40;99.90
9305;DHT22;4690;52.422;13.486;2023-12-04T07:35:50;-3.30;99.90
9305;DHT22;4690;52.422;13.486;2023-12-04T07:38:17;-3.40;99.90
9305;DHT22;4690;52.422;13.486;2023-12-04T07:40:43;-3.30;99.90
9305;DHT22;4690;52.422;13.486;2023-12-04T07:43:09;-3.30;99.90
9305;DHT22;4690;52.422;13.486;2023-12-04T07:45:35;-3.20;99.90
9305;DHT22;4690;52.422;13.486;2023-12-04T07:48:03;-3.20;99.90
9305;DHT22;4690;52.422;13.486;2023-12-04T07:50:29;-3.20;99.90
9305;DHT22;4690;52.422;13.486;2023-12-04T07:52:55;-3.10;99.90
9305;DHT22;4690;52.422;13.486;2023-12-04T07:55:21;-3.10;99.90
9305;DHT22;4690;52.422;13.486;2023-12-04T07:57:46;-3.00;99.90
9305;DHT22;4690;52.422;13.486;2023-12-04T08:00:13;-3.00;99.90
9305;DHT22;4690;52.422;13.486;2023-12-04T08:02:39;-3.00;99.90
9305;DHT22;4690;52.422;13.486;2023-12-04T08:05:06;-2.90;99.90
9305;DHT22;4690;52.422;13.486;2023-12-04T08:07:32;-3.00;99.90
9305;DHT22;4690;52.422;13.486;2023-12-04T08:09:58;-2.90;99.90
9305;DHT22;4690;52.422;13.486;2023-12-04T08:12:23;-2.90;99.90
9305;DHT22;4690;52.422;13.486;2023-12-04T08:14:49;-2.80;99.90
9305;DHT22;4690;52.422;13.486;2023-12-04T08:17:15;-2.80;99.90
9305;DHT22;4690;52.422;13.486;2023-12-04T08:19:40;-2.70;99.90
9305;DHT22;4690;52.422;13.486;2023-12-04T08:22:07;-2.70;99.90
9305;DHT22;4690;52.422;13.486;2023-12-04T08:24:32;-2.70;99.90
9305;DHT22;4690;52.422;13.486;2023-12-04T08:26:58;-2.70;99.90
9305;DHT22;4690;52.422;13.486;2023-12-04T08:29:24;-2.60;99.90
9305;DHT22;4690;52.422;13.486;2023-12-04T08:31:50;-2.60;99.90
9305;DHT22;4690;52.422;13.486;2023-12-04T08:34:15;-2.50;99.90
9305;DHT22;4690;52.422;13.486;2023-12-04T08:36:41;-2.50;99.90
9305;DHT22;4690;52.422;13.486;2023-12-04T08:39:07;-2.40;99.90
9305;DHT22;4690;52.422;13.486;2023-12-04T08:41:33;-2.40;99.90
9305;DHT22;4690;52.422;13.486;2023-12-04T08:43:58;-2.40;99.90
9305;DHT22;4690;52.422;13.486;2023-12-04T08:46:24;-2.30;99.90
9305;DHT22;4690;52.422;13.486;2023-12-04T08:48:50;-2.20;99.90
9305;DHT22;4690;52.422;13.486;2023-12-04T08:51:16;-2.20;99.90
9305;DHT22;4690;52.422;13.486;2023-12-04T08:53:43;-2.20;99.90
9305;DHT22;4690;52.422;13.486;2023-12-04T08:56:10;-2.30;99.90
9305;DHT22;4690;52.422;13.486;2023-12-04T08:58:36;-2.20;99.90
9305;DHT22;4690;52.422;13.486;2023-12-04T09:01:02;-2.20;99.90
9305;DHT22;4690;52.422;13.486;2023-12-04T09:03:29;-2.20;99.90
9305;DHT22;4690;52.422;13.486;2023-12-04T09:05:57;-2.20;99.90
9305;DHT22;4690;52.422;13.486;2023-12-04T09:08:23;-2.10;99.90
9305;DHT22;4690;52.422;13.486;2023-12-04T09:10:51;-2.00;99.90
9305;DHT22;4690;52.422;13.486;2023-12-04T09:13:17;-1.90;99.90
9305;DHT22;4690;52.422;13.486;2023-12-04T09:15:43;-1.90;99.90
9305;DHT22;4690;52.422;13.486;2023-12-04T09:18:09;-1.90;99.90
9305;DHT22;4690;52.422;13.486;2023-12-04T09:20:34;-1.90;99.90
9305;DHT22;4690;52.422;13.486;2023-12-04T09:23:01;-1.80;99.90
9305;DHT22;4690;52.422;13.486;2023-12-04T09:25:26;-1.90;99.90
9305;DHT22;4690;52.422;13.486;2023-12-04T09:27:53;-1.80;99.90
9305;DHT22;4690;52.422;13.486;2023-12-04T09:30:18;-1.70;99.90
9305;DHT22;4690;52.422;13.486;2023-12-04T09:32:44;-1.80;99.90
9305;DHT22;4690;52.422;13.486;2023-12-04T09:35:10;-1.80;99.90
9305;DHT22;4690;52.422;13.486;2023-12-04T09:37:36;-1.80;99.90
9305;DHT22;4690;52.422;13.486;2023-12-04T09:40:02;-1.70;99.90
9305;DHT22;4690;52.422;13.486;2023-12-04T09:42:30;-1.60;99.90
9305;DHT22;4690;52.422;13.486;2023-12-04T09:44:58;-1.70;99.90
9305;DHT22;4690;52.422;13.486;2023-12-04T09:47:26;-1.50;99.90
9305;DHT22;4690;52.422;13.486;2023-12-04T09:49:52;-1.50;99.90
9305;DHT22;4690;52.422;13.486;2023-12-04T09:52:20;-1.50;99.90
9305;DHT22;4690;52.422;13.486;2023-12-04T09:54:46;-1.40;99.90
9305;DHT22;4690;52.422;13.486;2023-12-04T09:57:12;-1.40;99.90
9305;DHT22;4690;52.422;13.486;2023-12-04T09:59:38;-1.30;99.90
9305;DHT22;4690;52.422;13.486;2023-12-04T10:02:05;-1.20;99.90
9305;DHT22;4690;52.422;13.486;2023-12-04T10:04:34;-1.20;99.90
9305;DHT22;4690;52.422;13.486;2023-12-04T10:07:01;-1.10;99.90
9305;DHT22;4690;52.422;13.486;2023-12-04T10:09:27;-1.10;99.90
9305;DHT22;4690;52.422;13.486;2023-12-04T10:11:55;-1.20;99.90
9305;DHT22;4690;52.422;13.486;2023-12-04T10:14:22;-1.10;99.90
9305;DHT22;4690;52.422;13.486;2023-12-04T10:16:49;-1.10;99.90
9305;DHT22;4690;52.422;13.486;2023-12-04T10:19:26;-1.00;99.90
9305;DHT22;4690;52.422;13.486;2023-12-04T10:21:56;-1.00;99.90
9305;DHT22;4690;52.422;13.486;2023-12-04T10:26:59;-1.00;99.90
9305;DHT22;4690;52.422;13.486;2023-12-04T10:29:29;-0.80;99.90
9305;DHT22;4690;52.422;13.486;2023-12-04T10:32:07;-0.90;99.90
9305;DHT22;4690;52.422;13.486;2023-12-04T10:34:33;-0.80;99.90
9305;DHT22;4690;52.422;13.486;2023-12-04T10:36:59;-0.90;99.90
9305;DHT22;4690;52.422;13.486;2023-12-04T10:39:25;-0.80;99.90
9305;DHT22;4690;52.422;13.486;2023-12-04T10:42:03;-0.80;99.90
9305;DHT22;4690;52.422;13.486;2023-12-04T10:44:32;-0.80;99.90
9305;DHT22;4690;52.422;13.486;2023-12-04T10:46:59;-0.70;99.90
9305;DHT22;4690;52.422;13.486;2023-12-04T10:49:27;-0.70;99.90
9305;DHT22;4690;52.422;13.486;2023-12-04T10:51:57;-0.70;99.90
9305;DHT22;4690;52.422;13.486;2023-12-04T10:54:26;-0.70;99.90
9305;DHT22;4690;52.422;13.486;2023-12-04T10:56:57;-0.60;99.90
9305;DHT22;4690;52.422;13.486;2023-12-04T10:59:32;-0.70;99.90
9305;DHT22;4690;52.422;13.486;2023-12-04T11:02:05;-0.60;99.90
9305;DHT22;4690;52.422;13.486;2023-12-04T11:04:36;-0.60;99.90
9305;DHT22;4690;52.422;13.486;2023-12-04T11:07:05;-0.60;99.90
9305;DHT22;4690;52.422;13.486;2023-12-04T11:09:34;-0.50;99.90
9305;DHT22;4690;52.422;13.486;2023-12-04T11:12:04;-0.60;99.90
9305;DHT22;4690;52.422;13.486;2023-12-04T11:14:42;-0.60;99.90
9305;DHT22;4690;52.422;13.486;2023-12-04T11:17:14;-0.60;99.90
9305;DHT22;4690;52.422;13.486;2023-12-04T11:19:55;-0.50;99.90
9305;DHT22;4690;52.422;13.486;2023-12-04T11:22:25;-0.50;99.90
9305;DHT22;4690;52.422;13.486;2023-12-04T11:24:51;-0.40;99.90
9305;DHT22;4690;52.422;13.486;2023-12-04T11:27:18;-0.30;99.90
9305;DHT22;4690;52.422;13.486;2023-12-04T11:29:46;-0.40;99.90
9305;DHT22;4690;52.422;13.486;2023-12-04T11:32:16;-0.30;99.90
9305;DHT22;4690;52.422;13.486;2023-12-04T11:34:54;-0.30;99.90
9305;DHT22;4690;52.422;13.486;2023-12-04T11:37:22;-0.20;99.90
9305;DHT22;4690;52.422;13.486;2023-12-04T11:39:53;-0.10;99.90
9305;DHT22;4690;52.422;13.486;2023-12-04T11:42:23;-0.20;99.90
9305;DHT22;4690;52.422;13.486;2023-12-04T11:44:55;-0.20;99.90
9305;DHT22;4690;52.422;13.486;2023-12-04T11:47:23;0.00;99.90
9305;DHT22;4690;52.422;13.486;2023-12-04T11:49:49;-0.10;99.90
9305;DHT22;4690;52.422;13.486;2023-12-04T11:52:15;0.10;99.90
9305;DHT22;4690;52.422;13.486;2023-12-04T11:54:57;0.10;99.90
9305;DHT22;4690;52.422;13.486;2023-12-04T11:57:25;0.10;99.90
9305;DHT22;4690;52.422;13.486;2023-12-04T12:05:37;0.20;99.90
9305;DHT22;4690;52.422;13.486;2023-12-04T12:08:07;0.20;99.90
9305;DHT22;4690;52.422;13.486;2023-12-04T12:10:34;0.10;99.90
9305;DHT22;4690;52.422;13.486;2023-12-04T12:13:00;0.00;99.90
9305;DHT22;4690;52.422;13.486;2023-12-04T12:15:27;0.00;99.90
9305;DHT22;4690;52.422;13.486;2023-12-04T12:17:54;0.00;99.90
9305;DHT22;4690;52.422;13.486;2023-12-04T12:20:20;0.10;99.90
9305;DHT22;4690;52.422;13.486;2023-12-04T12:22:47;0.00;99.90
9305;DHT22;4690;52.422;13.486;2023-12-04T12:25:14;0.00;99.90
9305;DHT22;4690;52.422;13.486;2023-12-04T12:27:40;0.00;99.90
9305;DHT22;4690;52.422;13.486;2023-12-04T12:30:08;-0.10;99.90
9305;DHT22;4690;52.422;13.486;2023-12-04T12:32:34;-0.10;99.90
9305;DHT22;4690;52.422;13.486;2023-12-04T12:35:01;-0.10;99.90
9305;DHT22;4690;52.422;13.486;2023-12-04T12:37:28;-0.10;99.90
9305;DHT22;4690;52.422;13.486;2023-12-04T12:39:55;-0.10;99.90
9305;DHT22;4690;52.422;13.486;2023-12-04T12:42:27;0.00;99.90
9305;DHT22;4690;52.422;13.486;2023-12-04T12:44:54;0.00;99.90
9305;DHT22;4690;52.422;13.486;2023-12-04T12:47:21;0.00;99.90
9305;DHT22;4690;52.422;13.486;2023-12-04T12:49:48;0.00;99.90
9305;DHT22;4690;52.422;13.486;2023-12-04T12:52:14;0.00;99.90
9305;DHT22;4690;52.422;13.486;2023-12-04T12:54:41;0.00;99.90
9305;DHT22;4690;52.422;13.486;2023-12-04T12:57:08;0.10;99.90
9305;DHT22;4690;52.422;13.486;2023-12-04T12:59:35;0.10;99.90
9305;DHT22;4690;52.422;13.486;2023-12-04T13:02:01;0.10;99.90
9305;DHT22;4690;52.422;13.486;2023-12-04T13:04:34;0.10;99.90
9305;DHT22;4690;52.422;13.486;2023-12-04T13:07:04;0.00;99.90
9305;DHT22;4690;52.422;13.486;2023-12-04T13:09:32;0.00;99.90
9305;DHT22;4690;52.422;13.486;2023-12-04T13:11:58;0.00;99.90
9305;DHT22;4690;52.422;13.486;2023-12-04T13:14:25;0.00;99.90
9305;DHT22;4690;52.422;13.486;2023-12-04T13:16:51;0.00;99.90
9305;DHT22;4690;52.422;13.486;2023-12-04T13:19:16;0.00;99.90
9305;DHT22;4690;52.422;13.486;2023-12-04T13:21:43;0.00;99.90
9305;DHT22;4690;52.422;13.486;2023-12-04T13:24:10;-0.10;99.90
9305;DHT22;4690;52.422;13.486;2023-12-04T13:26:37;-0.10;99.90
9305;DHT22;4690;52.422;13.486;2023-12-04T13:29:02;-0.10;99.90
9305;DHT22;4690;52.422;13.486;2023-12-04T13:31:28;-0.20;99.90
9305;DHT22;4690;52.422;13.486;2023-12-04T13:33:54;-0.10;99.90
9305;DHT22;4690;52.422;13.486;2023-12-04T13:36:20;-0.10;99.90
9305;DHT22;4690;52.422;13.486;2023-12-04T13:38:46;-0.10;99.90
9305;DHT22;4690;52.422;13.486;2023-12-04T13:41:13;-0.10;99.90
9305;DHT22;4690;52.422;13.486;2023-12-04T13:44:04;-0.10;99.90
9305;DHT22;4690;52.422;13.486;2023-12-04T13:46:30;-0.10;99.90
9305;DHT22;4690;52.422;13.486;2023-12-04T13:48:57;-0.10;99.90
9305;DHT22;4690;52.422;13.486;2023-12-04T13:51:23;-0.20;99.90
9305;DHT22;4690;52.422;13.486;2023-12-04T13:53:49;-0.20;99.90
9305;DHT22;4690;52.422;13.486;2023-12-04T13:56:20;-0.20;99.90
9305;DHT22;4690;52.422;13.486;2023-12-04T13:58:46;-0.20;99.90
9305;DHT22;4690;52.422;13.486;2023-12-04T14:01:25;-0.20;99.90
9305;DHT22;4690;52.422;13.486;2023-12-04T14:03:56;-0.20;99.90
9305;DHT22;4690;52.422;13.486;2023-12-04T14:06:30;-0.30;99.90
9305;DHT22;4690;52.422;13.486;2023-12-04T14:08:58;-0.30;99.90
9305;DHT22;4690;52.422;13.486;2023-12-04T14:11:24;-0.30;99.90
9305;DHT22;4690;52.422;13.486;2023-12-04T14:13:50;-0.30;99.90
9305;DHT22;4690;52.422;13.486;2023-12-04T14:16:17;-0.30;99.90
9305;DHT22;4690;52.422;13.486;2023-12-04T14:18:43;-0.30;99.90
9305;DHT22;4690;52.422;13.486;2023-12-04T14:21:09;-0.30;99.90
9305;DHT22;4690;52.422;13.486;2023-12-04T14:23:35;-0.30;99.90
9305;DHT22;4690;52.422;13.486;2023-12-04T14:26:01;-0.30;99.90
9305;DHT22;4690;52.422;13.486;2023-12-04T14:28:28;-0.30;99.90
9305;DHT22;4690;52.422;13.486;2023-12-04T14:30:54;-0.30;99.90
9305;DHT22;4690;52.422;13.486;2023-12-04T14:33:20;-0.40;99.90
9305;DHT22;4690;52.422;13.486;2023-12-04T14:35:46;-0.30;99.90
9305;DHT22;4690;52.422;13.486;2023-12-04T14:38:12;-0.40;99.90
9305;DHT22;4690;52.422;13.486;2023-12-04T14:40:39;-0.40;99.90
9305;DHT22;4690;52.422;13.486;2023-12-04T14:43:05;-0.30;99.90
9305;DHT22;4690;52.422;13.486;2023-12-04T14:45:37;-0.40;99.90
9305;DHT22;4690;52.422;13.486;2023-12-04T14:48:03;-0.40;99.90
9305;DHT22;4690;52.422;13.486;2023-12-04T14:50:35;-0.40;99.90
9305;DHT22;4690;52.422;13.486;2023-12-04T14:53:03;-0.40;99.90
9305;DHT22;4690;52.422;13.486;2023-12-04T14:55:52;-0.40;99.90
9305;DHT22;4690;52.422;13.486;2023-12-04T14:58:18;-0.40;99.90
9305;DHT22;4690;52.422;13.486;2023-12-04T15:01:06;-0.40;99.90
9305;DHT22;4690;52.422;13.486;2023-12-04T15:03:51;-0.40;99.90
9305;DHT22;4690;52.422;13.486;2023-12-04T15:06:19;-0.40;99.90
9305;DHT22;4690;52.422;13.486;2023-12-04T15:09:03;-0.40;99.90
9305;DHT22;4690;52.422;13.486;2023-12-04T15:11:29;-0.30;99.90
9305;DHT22;4690;52.422;13.486;2023-12-04T15:13:54;-0.40;99.90
9305;DHT22;4690;52.422;13.486;2023-12-04T15:16:40;-0.30;99.90
9305;DHT22;4690;52.422;13.486;2023-12-04T15:19:12;-0.40;99.90
9305;DHT22;4690;52.422;13.486;2023-12-04T15:21:54;-0.30;99.90
9305;DHT22;4690;52.422;13.486;2023-12-04T15:24:20;-0.30;99.90
9305;DHT22;4690;52.422;13.486;2023-12-04T15:26:46;-0.30;99.90
9305;DHT22;4690;52.422;13.486;2023-12-04T15:29:12;-0.30;99.90
9305;DHT22;4690;52.422;13.486;2023-12-04T15:31:37;-0.30;99.90
9305;DHT22;4690;52.422;13.486;2023-12-04T15:34:05;-0.30;99.90
9305;DHT22;4690;52.422;13.486;2023-12-04T15:36:30;-0.30;99.90
9305;DHT22;4690;52.422;13.486;2023-12-04T15:38:56;-0.30;99.90
9305;DHT22;4690;52.422;13.486;2023-12-04T15:41:22;-0.30;99.90
9305;DHT22;4690;52.422;13.486;2023-12-04T15:43:48;-0.30;99.90
9305;DHT22;4690;52.422;13.486;2023-12-04T15:46:15;-0.30;99.90
9305;DHT22;4690;52.422;13.486;2023-12-04T15:48:43;-0.30;99.90
9305;DHT22;4690;52.422;13.486;2023-12-04T15:51:08;-0.30;99.90
9305;DHT22;4690;52.422;13.486;2023-12-04T15:53:36;-0.30;99.90
9305;DHT22;4690;52.422;13.486;2023-12-04T15:56:02;-0.30;99.90
9305;DHT22;4690;52.422;13.486;2023-12-04T15:58:30;-0.30;99.90
9305;DHT22;4690;52.422;13.486;2023-12-04T16:00:59;-0.30;99.90
9305;DHT22;4690;52.422;13.486;2023-12-04T16:03:25;-0.30;99.90
9305;DHT22;4690;52.422;13.486;2023-12-04T16:05:51;-0.30;99.90